Time;durP1;ratioP1;P1;durP2;ratioP2;P2;SDS_P1;SDS_P2;PMS_P1;PMS_P2;Temp;Humidity;BMP_temperature;BMP_pressure;BME280_temperature;BME280_humidity;BME280_pressure;Samples;Min_cycle;Max_cycle;Signal;HPM_P1;HPM_P2
2021/06/30 00:01:42;;;;;;;9.07;1.80;;;;;;;14.03;100.00;98398.41;4993210;28;20452;-65
2021/06/30 00:04:08;;;;;;;4.47;1.80;;;;;;;14.04;100.00;98399.25;4991631;28;20034;-66
2021/06/30 00:06:34;;;;;;;8.35;1.55;;;;;;;14.04;100.00;98399.25;4993077;28;20038;-66
2021/06/30 00:08:59;;;;;;;7.55;1.55;;;;;;;13.96;100.00;98392.28;4990192;28;20069;-66
2021/06/30 00:11:26;;;;;;;3.83;1.70;;;;;;;13.94;100.00;98402.56;4993094;28;20031;-65
2021/06/30 00:13:51;;;;;;;3.72;1.65;;;;;;;13.96;100.00;98402.31;4993330;28;20026;-66
2021/06/30 00:16:17;;;;;;;4.95;1.90;;;;;;;13.97;100.00;98407.53;4992382;28;20030;-65
2021/06/30 00:18:43;;;;;;;6.93;1.90;;;;;;;13.89;100.00;98390.75;4991746;28;20037;-66
2021/06/30 00:21:08;;;;;;;4.13;1.88;;;;;;;14.10;100.00;98425.53;4976911;28;22277;-65
2021/06/30 00:23:34;;;;;;;6.47;1.88;;;;;;;14.15;100.00;98412.03;4992685;28;20407;-65
2021/06/30 00:25:59;;;;;;;6.90;1.70;;;;;;;14.21;100.00;98421.97;4994011;28;20704;-66
2021/06/30 00:28:24;;;;;;;2.28;1.70;;;;;;;14.30;100.00;98413.44;4992760;28;20033;-66
2021/06/30 00:30:50;;;;;;;5.45;1.92;;;;;;;14.24;100.00;98418.75;4993123;28;20045;-65
2021/06/30 00:33:15;;;;;;;10.85;1.80;;;;;;;14.30;99.97;98427.06;4993417;28;20121;-65
2021/06/30 00:35:40;;;;;;;11.32;2.00;;;;;;;14.45;99.79;98433.66;4992797;28;20076;-66
2021/06/30 00:38:06;;;;;;;5.25;2.38;;;;;;;14.48;99.80;98425.03;4991859;28;20076;-66
2021/06/30 00:40:31;;;;;;;10.52;2.17;;;;;;;14.50;99.03;98416.63;5002069;28;20030;-66
2021/06/30 00:42:57;;;;;;;9.38;2.13;;;;;;;14.58;99.72;98415.47;4992476;28;20033;-66
2021/06/30 00:45:22;;;;;;;6.85;2.22;;;;;;;14.72;99.54;98421.47;4993273;28;20045;-66
2021/06/30 00:47:48;;;;;;;11.15;2.85;;;;;;;14.70;99.92;98432.63;4992737;28;20124;-66
2021/06/30 00:50:18;;;;;;;12.32;3.03;;;;;;;14.65;100.00;98429.78;4991790;28;20030;-66
2021/06/30 00:52:44;;;;;;;11.38;2.83;;;;;;;14.60;100.00;98430.50;4991174;28;20037;-66
2021/06/30 00:55:10;;;;;;;9.73;3.05;;;;;;;14.55;100.00;98430.38;4992102;28;20037;-66
2021/06/30 00:57:36;;;;;;;12.25;2.80;;;;;;;14.47;100.00;98430.72;4991736;28;20399;-66
2021/06/30 01:00:04;;;;;;;11.43;3.13;;;;;;;14.51;100.00;98420.19;4992436;28;20431;-66
2021/06/30 01:02:30;;;;;;;13.20;3.50;;;;;;;14.45;100.00;98424.69;4991275;28;20030;-66
2021/06/30 01:04:55;;;;;;;8.25;2.95;;;;;;;14.52;100.00;98424.56;4991325;28;20105;-66
2021/06/30 01:07:20;;;;;;;13.85;3.72;;;;;;;14.34;100.00;98409.19;4992556;28;20439;-66
2021/06/30 01:09:46;;;;;;;7.32;3.50;;;;;;;14.59;100.00;98428.84;4990728;28;20105;-66
2021/06/30 01:12:11;;;;;;;8.90;3.70;;;;;;;14.55;100.00;98430.38;4992022;28;20030;-66
2021/06/30 01:14:36;;;;;;;5.25;3.60;;;;;;;14.59;100.00;98431.59;4992746;28;20042;-66
2021/06/30 01:17:05;;;;;;;9.50;3.83;;;;;;;14.61;100.00;98431.31;4992033;28;20026;-66
2021/06/30 01:19:31;;;;;;;8.65;3.65;;;;;;;14.53;100.00;98440.69;4992234;28;20118;-66
2021/06/30 01:21:58;;;;;;;8.30;3.53;;;;;;;14.67;100.00;98449.41;4992104;28;20542;-66
2021/06/30 01:24:23;;;;;;;16.95;3.38;;;;;;;14.71;100.00;98447.06;4992328;28;20056;-66
2021/06/30 01:26:49;;;;;;;9.25;3.58;;;;;;;14.71;100.00;98447.88;4991678;28;20030;-66
2021/06/30 01:29:16;;;;;;;10.63;3.80;;;;;;;14.78;100.00;98453.22;4991691;28;20044;-66
2021/06/30 01:31:41;;;;;;;4.90;2.88;;;;;;;14.77;100.00;98457.00;4991065;28;20364;-66
2021/06/30 01:34:06;;;;;;;8.10;3.03;;;;;;;14.83;100.00;98456.06;4990210;28;20030;-66
2021/06/30 01:36:46;;;;;;;7.82;2.90;;;;;;;14.78;100.00;98439.59;4991935;28;20088;-66
2021/06/30 01:39:12;;;;;;;10.98;3.35;;;;;;;14.87;100.00;98447.16;4989235;28;20037;-66
2021/06/30 01:41:38;;;;;;;8.68;3.67;;;;;;;14.89;100.00;98455.09;4991694;28;20026;-66
2021/06/30 01:44:04;;;;;;;7.68;3.00;;;;;;;14.89;100.00;98455.09;4991068;28;20543;-66
2021/06/30 01:46:29;;;;;;;9.80;3.20;;;;;;;14.98;100.00;98463.72;4991462;28;20030;-67
2021/06/30 01:48:55;;;;;;;8.90;2.47;;;;;;;15.06;100.00;98466.06;4991571;28;20027;-66
2021/06/30 01:51:21;;;;;;;3.83;2.55;;;;;;;15.05;100.00;98459.78;4991254;28;20416;-66
2021/06/30 01:53:46;;;;;;;7.85;2.22;;;;;;;15.12;100.00;98463.22;4995050;28;20044;-66
2021/06/30 01:56:11;;;;;;;9.95;2.42;;;;;;;15.05;100.00;98443.44;4992100;28;20041;-66
2021/06/30 01:58:37;;;;;;;6.75;2.33;;;;;;;15.21;100.00;98463.66;4991274;28;20476;-66
2021/06/30 02:01:03;;;;;;;5.22;1.83;;;;;;;15.14;98.41;98465.69;4991128;28;20026;-66
2021/06/30 02:03:28;;;;;;;1.50;1.13;;;;;;;15.21;95.11;98460.09;4991645;28;20039;-66
2021/06/30 02:05:53;;;;;;;5.32;0.90;;;;;;;15.19;94.44;98464.97;4990145;28;20030;-66
2021/06/30 02:08:19;;;;;;;1.83;1.00;;;;;;;15.23;94.02;98466.97;4992159;28;20058;-66
2021/06/30 02:10:45;;;;;;;2.97;0.98;;;;;;;15.16;92.88;98469.00;4991711;28;20044;-66
2021/06/30 02:13:11;;;;;;;4.70;0.95;;;;;;;15.18;93.56;98469.59;4990816;28;20046;-66
2021/06/30 02:15:38;;;;;;;4.85;1.05;;;;;;;15.06;93.04;98461.47;4991684;28;20026;-66
2021/06/30 02:18:04;;;;;;;3.70;1.13;;;;;;;15.02;93.87;98457.53;4991403;28;20030;-66
2021/06/30 02:20:29;;;;;;;1.95;0.60;;;;;;;15.04;92.71;98452.69;4991915;28;20097;-66
2021/06/30 02:22:56;;;;;;;1.25;0.70;;;;;;;14.98;92.63;98453.63;4990561;28;20038;-66
2021/06/30 02:25:30;;;;;;;2.88;0.80;;;;;;;14.94;92.57;98443.47;4990650;28;20477;-66
2021/06/30 02:27:56;;;;;;;1.60;0.60;;;;;;;14.96;92.84;98446.78;4991078;28;20050;-66
2021/06/30 02:30:25;;;;;;;0.73;0.60;;;;;;;14.92;93.36;98443.72;4992160;28;20037;-66
2021/06/30 02:32:50;;;;;;;3.47;0.70;;;;;;;14.92;93.53;98438.25;4989843;28;20045;-66
2021/06/30 02:35:19;;;;;;;1.98;0.75;;;;;;;14.90;94.64;98424.03;4988276;28;20485;-66
2021/06/30 02:37:45;;;;;;;3.47;0.70;;;;;;;14.87;94.17;98430.81;4993248;28;20034;-66
2021/06/30 02:40:13;;;;;;;3.63;0.60;;;;;;;14.88;94.15;98453.41;4992006;28;20042;-66
2021/06/30 02:42:39;;;;;;;4.13;1.00;;;;;;;14.85;95.08;98451.19;4988529;28;20685;-66
2021/06/30 02:45:09;;;;;;;4.07;0.77;;;;;;;14.89;94.20;98450.47;4995626;28;20443;-66
2021/06/30 02:47:34;;;;;;;;;;;;;;;14.95;93.77;98448.66;4994342;28;20045;-66
2021/06/30 02:49:59;;;;;;;6.43;1.00;;;;;;;14.86;94.76;98444.69;4993513;28;19917;-66
2021/06/30 02:52:25;;;;;;;5.97;0.88;;;;;;;14.78;96.02;98445.88;4993272;28;20081;-66
2021/06/30 02:54:50;;;;;;;7.38;1.00;;;;;;;14.69;96.34;98439.13;4984032;28;20046;-66
2021/06/30 02:57:15;;;;;;;5.85;0.80;;;;;;;14.87;93.41;98458.03;4993523;28;20039;-66
2021/06/30 02:59:41;;;;;;;3.80;0.75;;;;;;;14.82;92.77;98444.31;4994672;28;20178;-66
2021/06/30 03:02:06;;;;;;;1.98;0.65;;;;;;;14.94;93.10;98466.09;4994250;28;20034;-66
2021/06/30 03:04:31;;;;;;;2.95;0.85;;;;;;;14.93;93.68;98458.16;4992556;28;20057;-66
2021/06/30 03:06:57;;;;;;;5.68;0.93;;;;;;;14.79;94.42;98461.13;4991658;28;20034;-66
2021/06/30 03:09:22;;;;;;;5.25;0.80;;;;;;;14.75;93.61;98451.81;4993600;28;20034;-66
2021/06/30 03:11:50;;;;;;;1.30;0.88;;;;;;;14.82;93.12;98468.00;4993462;28;20057;-66
2021/06/30 03:14:16;;;;;;;2.58;0.73;;;;;;;14.81;93.93;98469.91;4994863;28;20026;-66
2021/06/30 03:16:41;;;;;;;0.70;0.70;;;;;;;14.75;93.78;98470.00;4994216;28;20077;-66
2021/06/30 03:19:07;;;;;;;1.55;0.73;;;;;;;14.82;94.11;98468.00;4993417;28;20503;-66
2021/06/30 03:21:32;;;;;;;1.20;0.70;;;;;;;14.80;93.17;98467.41;4994293;28;20531;-66
2021/06/30 03:23:57;;;;;;;3.15;0.70;;;;;;;14.77;94.06;98460.53;4992848;28;20026;-67
2021/06/30 03:26:23;;;;;;;2.42;0.60;;;;;;;14.72;94.48;98473.22;4994206;28;20057;-66
2021/06/30 03:28:48;;;;;;;1.40;0.50;;;;;;;14.68;95.28;98472.88;5271353;23;20042;-68
2021/06/30 03:31:13;;;;;;;2.63;0.60;;;;;;;14.61;94.73;98477.63;4992505;28;20041;-69
2021/06/30 03:33:39;;;;;;;3.20;0.80;;;;;;;14.57;94.77;98457.38;4979454;28;20490;-67
2021/06/30 03:36:04;;;;;;;2.25;0.70;;;;;;;14.58;94.67;98470.75;4985545;28;20041;-67
2021/06/30 03:38:32;;;;;;;3.53;0.70;;;;;;;14.67;94.60;98468.47;4988335;28;20510;-69
2021/06/30 03:40:57;;;;;;;1.02;0.60;;;;;;;14.66;94.35;98462.22;4975193;28;20038;-67
2021/06/30 03:43:22;;;;;;;0.88;0.50;;;;;;;14.71;94.07;98457.97;4974793;28;20034;-67
2021/06/30 03:45:47;;;;;;;1.73;0.80;;;;;;;14.73;93.97;98472.16;4975348;28;20026;-67
2021/06/30 03:48:13;;;;;;;2.92;0.80;;;;;;;14.71;93.79;98474.31;4978938;28;20461;-68
2021/06/30 03:50:38;;;;;;;2.88;0.77;;;;;;;14.76;92.62;98485.31;4974830;28;20042;-67
2021/06/30 03:53:03;;;;;;;1.60;0.40;;;;;;;14.74;92.71;98484.72;4974742;28;20026;-68
2021/06/30 03:55:29;;;;;;;0.40;0.40;;;;;;;14.81;92.03;98485.41;4975393;28;20065;-72
2021/06/30 03:57:54;;;;;;;1.25;0.73;;;;;;;14.82;91.82;98484.34;4974895;28;20171;-73
2021/06/30 04:00:19;;;;;;;2.03;0.60;;;;;;;14.83;91.09;98492.28;4966864;28;20062;-72
2021/06/30 04:02:45;;;;;;;3.55;0.77;;;;;;;14.66;91.15;98475.00;4971124;28;20439;-69
2021/06/30 04:05:10;;;;;;;1.58;0.50;;;;;;;14.81;91.53;98490.88;4968356;28;20035;-71
2021/06/30 04:07:35;;;;;;;3.78;0.80;;;;;;;14.77;89.65;98500.56;4972275;28;20066;-69
2021/06/30 04:10:04;;;;;;;4.22;0.32;;;;;;;14.74;88.97;98495.59;4972931;28;20701;-72
2021/06/30 04:12:29;;;;;;;2.20;0.30;;;;;;;14.67;89.07;98490.25;4968016;28;20054;-74
2021/06/30 04:14:54;;;;;;;2.47;0.40;;;;;;;14.77;88.63;98503.28;4955458;28;20047;-74
2021/06/30 04:17:20;;;;;;;3.22;0.40;;;;;;;14.77;87.46;98495.13;4969305;28;20089;-65
2021/06/30 04:19:45;;;;;;;0.82;0.30;;;;;;;14.73;87.35;98504.84;4969838;28;20042;-75
2021/06/30 04:22:10;;;;;;;2.75;0.25;;;;;;;14.44;89.55;98478.31;4974272;28;20062;-74
2021/06/30 04:24:36;;;;;;;1.75;0.20;;;;;;;14.36;91.70;98494.16;4962616;28;20544;-73
2021/06/30 04:27:01;;;;;;;1.73;0.38;;;;;;;14.03;91.96;98479.19;4967931;28;20041;-75
2021/06/30 04:29:26;;;;;;;1.02;0.47;;;;;;;13.98;92.80;98492.66;4969100;28;20503;-74
2021/06/30 04:31:52;;;;;;;2.08;0.30;;;;;;;13.92;94.39;98494.44;4955450;28;20091;-69
2021/06/30 04:34:17;;;;;;;0.70;0.20;;;;;;;13.85;95.33;98487.44;4966185;28;20109;-75
2021/06/30 04:36:42;;;;;;;1.15;0.30;;;;;;;13.84;94.60;98492.03;4974028;28;20033;-73
2021/06/30 04:39:08;;;;;;;0.90;0.30;;;;;;;13.87;93.73;98488.03;4974023;28;20113;-71
2021/06/30 04:41:33;;;;;;;0.57;0.30;;;;;;;13.90;93.46;98501.16;4977588;28;20546;-74
2021/06/30 04:43:58;;;;;;;0.40;0.20;;;;;;;13.98;93.86;98500.81;4977350;28;20019;-71
2021/06/30 04:46:23;;;;;;;0.47;0.30;;;;;;;13.94;93.73;98502.38;4971483;28;20022;-75
2021/06/30 04:48:49;;;;;;;1.75;0.32;;;;;;;13.96;93.41;98503.78;4966255;28;20118;-72
2021/06/30 04:51:14;;;;;;;1.10;0.40;;;;;;;13.98;93.08;98506.25;4973506;28;20062;-67
2021/06/30 04:53:39;;;;;;;0.25;0.20;;;;;;;14.02;92.95;98512.91;4973557;28;20349;-69
2021/06/30 04:56:05;;;;;;;0.30;0.20;;;;;;;13.97;91.75;98501.91;4968177;28;20035;-69
2021/06/30 04:58:30;;;;;;;3.15;0.40;;;;;;;14.03;92.69;98512.66;4971475;28;20031;-71
2021/06/30 05:00:56;;;;;;;0.75;0.30;;;;;;;13.90;92.42;98514.75;4971960;28;20061;-69
2021/06/30 05:03:26;;;;;;;2.83;0.30;;;;;;;14.00;93.36;98512.31;4970461;28;20110;-67
2021/06/30 05:05:52;;;;;;;2.13;0.32;;;;;;;13.82;92.56;98500.41;4973268;28;20050;-74
2021/06/30 05:08:17;;;;;;;0.70;0.22;;;;;;;13.95;94.04;98523.06;4972371;28;20031;-66
2021/06/30 05:10:43;;;;;;;1.85;0.30;;;;;;;13.90;94.08;98520.19;4971541;28;20040;-74
2021/06/30 05:13:08;;;;;;;1.90;0.30;;;;;;;13.89;95.41;98511.22;4970880;28;20022;-71
2021/06/30 05:15:33;;;;;;;0.63;0.25;;;;;;;13.88;95.16;98520.41;4966518;28;20018;-73
2021/06/30 05:17:58;;;;;;;2.30;0.30;;;;;;;13.89;94.25;98510.38;4967539;28;20074;-71
2021/06/30 05:20:24;;;;;;;1.23;0.20;;;;;;;14.02;92.62;98516.44;4961290;28;20019;-67
2021/06/30 05:22:49;;;;;;;0.70;0.20;;;;;;;14.16;93.40;98522.50;4972093;28;20109;-67
2021/06/30 05:25:14;;;;;;;2.22;0.30;;;;;;;14.30;91.29;98520.41;4972739;28;20023;-68
2021/06/30 05:27:40;;;;;;;2.40;0.40;;;;;;;14.32;90.47;98507.38;4971790;28;20105;-68
2021/06/30 05:30:07;;;;;;;0.55;0.47;;;;;;;14.58;89.27;98519.75;4972877;28;20029;-73
2021/06/30 05:32:33;;;;;;;0.75;0.30;;;;;;;14.82;88.26;98519.75;4964806;28;20074;-72
2021/06/30 05:34:58;;;;;;;0.20;0.10;;;;;;;15.01;86.90;98507.66;4963207;28;20057;-74
2021/06/30 05:37:24;;;;;;;1.17;0.20;;;;;;;15.13;86.30;98502.19;4970506;28;20378;-74
2021/06/30 05:39:49;;;;;;;0.20;0.20;;;;;;;15.36;85.84;98512.19;4971654;28;20137;-71
2021/06/30 05:42:15;;;;;;;0.73;0.30;;;;;;;15.67;84.07;98501.91;4970959;28;20081;-75
2021/06/30 05:44:41;;;;;;;0.15;0.15;;;;;;;15.84;81.47;98508.25;4973169;28;20031;-74
2021/06/30 05:47:06;;;;;;;1.13;0.20;;;;;;;16.07;80.74;98510.03;4968315;28;20082;-75
2021/06/30 05:49:31;;;;;;;1.50;0.50;;;;;;;16.04;81.62;98504.25;4972723;28;20026;-75
2021/06/30 05:51:57;;;;;;;1.15;0.47;;;;;;;16.41;80.62;98491.75;4972015;28;20436;-75
2021/06/30 05:54:22;;;;;;;1.95;0.85;;;;;;;16.52;79.05;98495.47;4971179;28;20066;-73
2021/06/30 05:56:48;;;;;;;4.15;0.98;;;;;;;16.44;78.99;98515.81;4961862;28;20042;-72
2021/06/30 05:59:13;;;;;;;0.30;0.30;;;;;;;16.30;77.87;98505.50;4967836;28;20400;-74
2021/06/30 06:01:38;;;;;;;2.17;0.30;;;;;;;16.44;78.66;98520.47;4972898;28;20564;-72
2021/06/30 06:04:04;;;;;;;1.95;0.30;;;;;;;16.49;78.44;98503.34;4965248;28;20118;-73
2021/06/30 06:06:29;;;;;;;0.20;0.10;;;;;;;16.37;78.89;98515.19;4971170;28;20027;-73
2021/06/30 06:08:54;;;;;;;1.35;0.25;;;;;;;16.21;79.18;98522.25;4970871;28;20487;-74
2021/06/30 06:11:20;;;;;;;0.52;0.20;;;;;;;16.07;81.05;98520.94;4971742;28;20026;-76
2021/06/30 06:13:46;;;;;;;1.00;0.20;;;;;;;15.93;81.73;98514.97;4972787;28;20170;-71
2021/06/30 06:16:13;;;;;;;3.20;0.38;;;;;;;16.17;82.68;98526.56;4976722;28;20027;-73
2021/06/30 06:18:38;;;;;;;3.53;0.30;;;;;;;16.56;81.42;98520.41;4976094;28;20042;-72
2021/06/30 06:21:03;;;;;;;0.40;0.30;;;;;;;16.78;77.96;98521.28;4976087;28;20030;-70
2021/06/30 06:23:29;;;;;;;0.52;0.17;;;;;;;17.06;78.35;98516.78;4974667;28;20420;-70
2021/06/30 06:25:55;;;;;;;2.35;0.38;;;;;;;17.21;76.52;98497.84;4976374;28;20497;-70
2021/06/30 06:28:20;;;;;;;0.70;0.20;;;;;;;17.59;74.42;98517.16;4975589;28;20034;-71
2021/06/30 06:30:48;;;;;;;1.30;0.20;;;;;;;17.75;74.09;98514.34;4975053;28;20037;-74
2021/06/30 06:33:14;;;;;;;0.32;0.20;;;;;;;18.25;73.15;98509.66;4982822;28;20082;-71
2021/06/30 06:35:42;;;;;;;2.55;0.20;;;;;;;18.74;70.54;98514.97;4972212;28;20400;-77
2021/06/30 06:38:07;;;;;;;0.57;0.20;;;;;;;19.10;70.62;98500.66;4976047;28;20026;-76
2021/06/30 06:40:32;;;;;;;1.10;0.40;;;;;;;19.05;70.99;98510.53;4975120;28;20030;-75
2021/06/30 06:42:58;;;;;;;0.30;0.17;;;;;;;18.38;70.76;98494.69;4973509;28;20030;-70
2021/06/30 06:45:23;;;;;;;0.55;0.10;;;;;;;18.87;70.75;98502.75;4974053;28;20054;-75
2021/06/30 06:47:48;;;;;;;4.22;0.20;;;;;;;18.66;71.02;98501.75;4960613;28;20097;-73
2021/06/30 06:50:14;;;;;;;0.55;0.10;;;;;;;19.01;69.40;98509.41;4957089;28;20488;-70
2021/06/30 06:52:39;;;;;;;0.30;0.13;;;;;;;18.80;66.13;98492.00;4976903;28;20030;-69
2021/06/30 06:55:10;;;;;;;0.28;0.10;;;;;;;19.44;65.13;98501.94;4989126;28;20393;-69
2021/06/30 06:57:35;;;;;;;0.10;0.10;;;;;;;19.64;63.16;98508.59;4991901;28;20408;-69
2021/06/30 07:00:01;;;;;;;1.60;0.13;;;;;;;19.70;64.03;98494.66;4994791;28;20030;-69
2021/06/30 07:02:27;;;;;;;0.60;0.20;;;;;;;19.78;63.71;98522.66;4987622;28;20054;-69
2021/06/30 07:04:52;;;;;;;0.28;0.10;;;;;;;19.90;61.96;98499.34;4979179;28;20026;-71
2021/06/30 07:07:17;;;;;;;1.73;0.20;;;;;;;20.51;59.92;98504.09;4964970;28;20397;-69
2021/06/30 07:09:43;;;;;;;0.20;0.10;;;;;;;20.40;60.50;98507.09;4965727;28;20066;-72
2021/06/30 07:12:08;;;;;;;0.90;0.10;;;;;;;21.10;58.50;98497.13;4972782;28;20084;-70
2021/06/30 07:14:33;;;;;;;1.80;0.20;;;;;;;21.37;59.85;98516.00;4966615;28;20434;-69
2021/06/30 07:16:59;;;;;;;1.10;0.20;;;;;;;21.81;58.50;98497.94;4975019;28;20436;-67
2021/06/30 07:19:24;;;;;;;1.05;0.20;;;;;;;23.69;52.42;98505.59;4970421;28;20034;-66
2021/06/30 07:21:49;;;;;;;0.60;0.10;;;;;;;25.13;47.38;98510.50;4972503;28;20035;-68
2021/06/30 07:24:15;;;;;;;0.60;0.10;;;;;;;24.99;47.89;98504.09;4973424;28;20604;-67
2021/06/30 07:26:40;;;;;;;0.05;0.05;;;;;;;24.25;49.76;98504.78;4974280;28;20026;-68
2021/06/30 07:29:09;;;;;;;0.00;0.00;;;;;;;21.44;54.81;98515.75;4974872;28;20038;-69
2021/06/30 07:31:34;;;;;;;6.45;0.10;;;;;;;20.38;60.02;98514.78;4973892;28;20046;-65
2021/06/30 07:34:00;;;;;;;0.10;0.10;;;;;;;18.93;62.17;98512.66;4955995;28;20401;-67
2021/06/30 07:36:25;;;;;;;0.00;0.00;;;;;;;18.72;63.71;98510.84;4976611;28;20029;-68
2021/06/30 07:38:51;;;;;;;0.20;0.10;;;;;;;18.87;64.78;98510.97;4974037;28;20469;-64
2021/06/30 07:41:16;;;;;;;0.20;0.10;;;;;;;18.67;64.92;98497.91;4964754;28;20504;-67
2021/06/30 07:43:41;;;;;;;0.13;0.03;;;;;;;18.52;65.29;98509.63;4983892;28;20061;-68
2021/06/30 07:46:06;;;;;;;1.10;0.10;;;;;;;18.48;65.66;98515.88;4978728;28;20031;-63
2021/06/30 07:48:32;;;;;;;0.10;0.10;;;;;;;18.37;65.54;98501.28;4973069;28;20031;-63
2021/06/30 07:50:57;;;;;;;0.17;0.00;;;;;;;18.88;64.38;98512.63;4974904;28;20046;-63
2021/06/30 07:53:22;;;;;;;0.50;0.10;;;;;;;18.95;63.49;98494.03;4973487;28;20043;-63
2021/06/30 07:55:48;;;;;;;0.20;0.10;;;;;;;19.12;64.17;98502.06;4969209;28;20031;-63
2021/06/30 07:58:16;;;;;;;0.10;0.10;;;;;;;19.54;62.18;98500.31;4966011;28;20641;-63
2021/06/30 08:00:41;;;;;;;1.88;0.10;;;;;;;20.80;58.46;98495.25;4965068;28;20026;-63
2021/06/30 08:03:07;;;;;;;1.58;0.10;;;;;;;20.84;57.66;98495.53;4972074;28;20038;-65
2021/06/30 08:05:33;;;;;;;0.63;0.20;;;;;;;20.75;56.78;98506.25;4971256;28;20093;-65
2021/06/30 08:07:59;;;;;;;0.10;0.10;;;;;;;20.90;56.28;98502.66;4971639;28;20037;-65
2021/06/30 08:10:24;;;;;;;0.10;0.10;;;;;;;22.19;54.13;98492.75;4964323;28;20035;-66
2021/06/30 08:12:49;;;;;;;0.30;0.17;;;;;;;22.70;52.78;98482.13;4965394;28;20023;-72
2021/06/30 08:15:15;;;;;;;0.55;0.10;;;;;;;23.44;50.67;98490.16;4973861;28;20026;-67
2021/06/30 08:17:40;;;;;;;0.10;0.10;;;;;;;22.71;50.58;98499.50;4974358;28;20054;-69
2021/06/30 08:20:06;;;;;;;1.70;0.25;;;;;;;21.53;53.63;98485.69;4955296;29;20038;-64
2021/06/30 08:22:33;;;;;;;0.20;0.20;;;;;;;21.89;53.61;98491.84;4973406;28;20034;-63
2021/06/30 08:24:58;;;;;;;0.13;0.10;;;;;;;21.45;55.20;98501.69;4974233;28;20484;-71
2021/06/30 08:27:24;;;;;;;0.40;0.05;;;;;;;21.36;55.82;98491.53;4971756;28;20081;-69
2021/06/30 08:29:49;;;;;;;1.33;0.10;;;;;;;21.39;55.17;98497.31;4970194;28;20077;-70
2021/06/30 08:32:15;;;;;;;0.52;0.20;;;;;;;21.21;55.66;98489.66;4970788;28;20047;-72
2021/06/30 08:34:41;;;;;;;0.10;0.10;;;;;;;21.08;56.69;98490.25;4964218;28;20027;-70
2021/06/30 08:37:07;;;;;;;0.38;0.15;;;;;;;21.70;54.20;98496.38;4964934;28;20034;-69
2021/06/30 08:39:33;;;;;;;0.38;0.20;;;;;;;21.19;56.05;98502.88;4971588;28;20026;-69
2021/06/30 08:41:59;;;;;;;0.20;0.10;;;;;;;21.27;55.54;98506.97;4963941;28;20037;-71
2021/06/30 08:44:25;;;;;;;0.60;0.30;;;;;;;21.21;58.25;98506.16;4967522;28;20061;-71
2021/06/30 08:46:52;;;;;;;0.43;0.10;;;;;;;20.57;58.93;98504.94;4960525;28;20442;-69
2021/06/30 08:49:23;;;;;;;0.57;0.10;;;;;;;20.10;59.56;98495.00;4966616;28;20034;-68
2021/06/30 08:51:52;;;;;;;2.22;0.28;;;;;;;19.92;60.48;98494.41;4963694;28;20023;-65
2021/06/30 08:54:18;;;;;;;6.05;0.22;;;;;;;19.98;59.71;98508.97;4966960;28;20022;-68
2021/06/30 08:56:44;;;;;;;0.63;0.10;;;;;;;19.43;59.69;98505.75;4964342;28;20481;-64
2021/06/30 08:59:09;;;;;;;0.40;0.13;;;;;;;19.09;60.72;98507.25;4977848;28;20070;-69
2021/06/30 09:01:35;;;;;;;2.17;0.20;;;;;;;19.02;61.08;98510.22;4973073;28;20345;-70
2021/06/30 09:04:01;;;;;;;1.08;0.10;;;;;;;18.44;63.11;98518.28;4971470;28;20053;-71
2021/06/30 09:06:27;;;;;;;0.60;0.22;;;;;;;17.88;64.91;98523.25;4973344;28;20499;-70
2021/06/30 09:08:59;;;;;;;0.38;0.20;;;;;;;17.69;65.16;98509.09;4989040;28;20419;-73
2021/06/30 09:11:26;;;;;;;0.50;0.30;;;;;;;18.12;63.54;98504.59;4990653;28;20122;-74
2021/06/30 09:14:09;;;;;;;2.40;0.40;;;;;;;18.58;62.96;98513.22;4967002;28;20015;-74
2021/06/30 09:16:50;;;;;;;0.13;0.13;;;;;;;18.52;65.90;98527.94;4965930;28;20022;-65
2021/06/30 09:19:15;;;;;;;0.63;0.30;;;;;;;18.53;65.56;98524.94;4968953;28;20420;-65
2021/06/30 09:21:41;;;;;;;0.20;0.20;;;;;;;17.93;67.67;98540.56;4971492;28;20034;-69
2021/06/30 09:24:20;;;;;;;0.60;0.20;;;;;;;17.47;70.45;98539.16;4964021;28;20070;-70
2021/06/30 09:26:51;;;;;;;0.47;0.20;;;;;;;17.00;73.14;98540.50;4966560;28;20026;-75
2021/06/30 09:29:18;;;;;;;1.65;0.30;;;;;;;16.79;74.93;98543.97;4959511;28;20089;-74
2021/06/30 09:31:46;;;;;;;0.30;0.30;;;;;;;16.67;77.88;98557.72;4975553;28;20484;-77
2021/06/30 09:34:12;;;;;;;7.50;0.73;;;;;;;17.16;79.55;98552.47;4973129;28;20030;-74
2021/06/30 09:37:01;;;;;;;2.40;0.43;;;;;;;17.04;79.36;98549.81;4971991;28;20027;-74
2021/06/30 09:39:28;;;;;;;3.03;0.38;;;;;;;16.83;79.07;98547.88;4972110;28;20019;-73
2021/06/30 09:42:11;;;;;;;4.22;0.68;;;;;;;17.11;79.04;98551.53;4971072;28;20066;-66
2021/06/30 09:44:39;;;;;;;0.47;0.30;;;;;;;17.31;78.58;98551.81;4978052;28;20035;-68
2021/06/30 09:47:05;;;;;;;0.75;0.40;;;;;;;17.98;77.98;98544.44;4972160;28;20034;-70
2021/06/30 09:49:32;;;;;;;6.43;0.43;;;;;;;18.02;76.05;98534.63;4976196;28;20062;-68
2021/06/30 09:52:03;;;;;;;2.25;0.30;;;;;;;18.27;75.46;98542.25;4983115;28;20022;-64
2021/06/30 09:54:30;;;;;;;0.55;0.30;;;;;;;18.52;73.85;98534.28;4992220;28;20485;-75
2021/06/30 09:56:58;;;;;;;0.63;0.30;;;;;;;18.56;71.87;98516.22;4996030;28;20321;-74
2021/06/30 09:59:26;;;;;;;1.75;0.30;;;;;;;18.69;72.20;98508.63;4977685;28;20033;-76
2021/06/30 10:01:56;;;;;;;1.02;0.30;;;;;;;18.36;74.36;98543.44;4977313;28;20053;-75
2021/06/30 10:04:48;;;;;;;0.70;0.20;;;;;;;18.89;71.34;98538.97;4992111;28;20038;-68
2021/06/30 10:07:16;;;;;;;0.47;0.20;;;;;;;18.61;72.48;98538.16;4981442;28;20062;-68
2021/06/30 10:09:47;;;;;;;2.20;0.30;;;;;;;18.78;69.15;98539.97;4982104;28;20018;-68
2021/06/30 10:12:17;;;;;;;0.82;0.30;;;;;;;19.07;71.28;98536.84;4993361;28;20154;-68
2021/06/30 10:14:43;;;;;;;;;;;;;;;19.23;68.90;98535.84;4983778;28;20030;-68
2021/06/30 10:17:11;;;;;;;0.47;0.28;;;;;;;18.99;69.31;98530.81;4977620;28;19969;-68
2021/06/30 10:19:38;;;;;;;0.57;0.40;;;;;;;18.75;71.04;98538.56;4979230;28;20041;-69
2021/06/30 10:22:06;;;;;;;0.80;0.35;;;;;;;18.89;69.21;98528.00;4976122;28;20039;-74
2021/06/30 10:24:31;;;;;;;1.63;0.20;;;;;;;18.85;69.62;98537.81;4977975;28;20074;-69
2021/06/30 10:26:57;;;;;;;0.17;0.10;;;;;;;22.44;58.48;98517.38;4989535;28;20038;-72
2021/06/30 10:29:25;;;;;;;0.55;0.10;;;;;;;25.42;51.62;98509.41;4962767;28;20026;-73
2021/06/30 10:31:51;;;;;;;1.50;0.30;;;;;;;25.86;49.37;98518.19;4970801;28;20037;-70
2021/06/30 10:34:16;;;;;;;0.40;0.20;;;;;;;22.94;50.53;98508.91;4974479;28;20030;-68
2021/06/30 10:36:46;;;;;;;0.10;0.10;;;;;;;22.34;54.49;98522.97;4974913;28;20504;-69
2021/06/30 10:39:20;;;;;;;0.28;0.10;;;;;;;21.18;55.14;98512.22;4967852;28;20039;-67
2021/06/30 10:41:53;;;;;;;3.05;0.28;;;;;;;21.24;53.12;98502.84;4976793;28;20038;-67
2021/06/30 10:44:24;;;;;;;0.93;0.10;;;;;;;23.07;52.11;98501.94;4978254;28;20023;-66
2021/06/30 10:46:52;;;;;;;0.88;0.15;;;;;;;24.58;46.90;98495.75;4978924;28;20030;-66
2021/06/30 10:49:24;;;;;;;1.63;0.20;;;;;;;26.67;44.10;98487.72;4988554;28;20035;-66
2021/06/30 10:51:50;;;;;;;0.60;0.20;;;;;;;25.77;44.70;98493.16;5009382;28;20019;-66
2021/06/30 10:54:35;;;;;;;0.75;0.10;;;;;;;24.47;48.26;98495.06;4988287;28;20030;-65
2021/06/30 10:57:19;;;;;;;1.88;0.20;;;;;;;24.24;47.30;98486.56;4985420;28;20030;-65
2021/06/30 11:00:04;;;;;;;0.45;0.10;;;;;;;23.87;47.00;98494.88;4966845;28;20030;-65
2021/06/30 11:02:31;;;;;;;0.15;0.10;;;;;;;23.91;49.78;98498.69;4977130;28;20077;-64
2021/06/30 11:04:57;;;;;;;2.15;0.13;;;;;;;26.12;43.40;98493.50;4977726;28;20451;-64
2021/06/30 11:07:31;;;;;;;1.60;0.20;;;;;;;27.57;39.98;98495.84;4993551;28;20084;-65
2021/06/30 11:09:56;;;;;;;1.45;0.20;;;;;;;27.04;42.13;98492.03;4983968;28;20030;-65
2021/06/30 11:12:50;;;;;;;0.45;0.10;;;;;;;27.56;40.68;98490.59;4989414;28;20029;-69
2021/06/30 11:15:34;;;;;;;2.05;0.20;;;;;;;27.35;40.23;98490.34;4998935;28;20033;-64
2021/06/30 11:18:00;;;;;;;0.15;0.15;;;;;;;25.51;41.78;98488.16;4984314;28;20035;-66
2021/06/30 11:20:44;;;;;;;0.25;0.20;;;;;;;23.90;46.50;98488.78;4986218;28;20030;-67
2021/06/30 11:23:17;;;;;;;0.85;0.20;;;;;;;23.29;48.72;98499.47;4977681;28;20046;-66
2021/06/30 11:25:43;;;;;;;1.55;0.20;;;;;;;22.52;51.10;98507.66;4990356;28;20042;-64
2021/06/30 11:28:30;;;;;;;0.30;0.20;;;;;;;23.59;50.41;98503.78;4972563;28;20030;-65
2021/06/30 11:30:57;;;;;;;2.67;0.17;;;;;;;26.28;43.08;98492.00;4984446;28;20045;-65